Time;durP1;ratioP1;P1;durP2;ratioP2;P2;SDS_P1;SDS_P2;PMS_P1;PMS_P2;Temp;Humidity;BMP_temperature;BMP_pressure;BME280_temperature;BME280_humidity;BME280_pressure;Samples;Min_cycle;Max_cycle;Signal;HPM_P1;HPM_P2
2023/10/24 00:01:16;;;;;;;9.18;6.88;;;;;;;;;;5020479;28;20043;-85
2023/10/24 00:03:41;;;;;;;9.27;6.97;;;;;;;;;;5020288;28;20385;-87
2023/10/24 00:06:08;;;;;;;9.07;6.47;;;;;;;;;;5022644;28;20029;-85
2023/10/24 00:08:33;;;;;;;9.15;6.88;;;;;;;;;;5025100;28;20026;-86
2023/10/24 00:11:03;;;;;;;9.88;6.93;;;;;;;;;;5023535;28;20044;-87
2023/10/24 00:13:29;;;;;;;9.07;6.93;;;;;;;;;;5022254;28;20029;-86
2023/10/24 00:15:55;;;;;;;7.05;6.05;;;;;;;;;;5023989;28;20033;-87
2023/10/24 00:18:20;;;;;;;8.15;6.72;;;;;;;;;;5021945;28;20057;-86
2023/10/24 00:20:45;;;;;;;8.93;6.40;;;;;;;;;;5024065;28;20041;-84
2023/10/24 00:23:11;;;;;;;7.40;6.25;;;;;;;;;;5026987;28;20025;-87
2023/10/24 00:25:37;;;;;;;8.32;6.00;;;;;;;;;;5027931;28;20021;-85
2023/10/24 00:28:02;;;;;;;10.38;6.75;;;;;;;;;;5031222;28;20032;-86
2023/10/24 00:30:27;;;;;;;9.25;6.82;;;;;;;;;;5036248;28;20031;-87
2023/10/24 00:32:53;;;;;;;8.45;6.78;;;;;;;;;;5034178;28;20036;-87
2023/10/24 00:35:18;;;;;;;8.85;6.78;;;;;;;;;;5034613;28;20117;-87
2023/10/24 00:37:44;;;;;;;11.27;7.50;;;;;;;;;;5037001;28;20056;-86
2023/10/24 00:40:10;;;;;;;9.95;7.15;;;;;;;;;;5028338;28;20056;-86
2023/10/24 00:42:35;;;;;;;9.25;6.43;;;;;;;;;;5031522;28;20397;-87
2023/10/24 00:45:01;;;;;;;10.20;7.47;;;;;;;;;;5031074;28;20040;-88
2023/10/24 00:47:26;;;;;;;10.18;7.03;;;;;;;;;;5034581;28;20021;-87
2023/10/24 00:49:52;;;;;;;10.18;6.25;;;;;;;;;;5032228;28;20434;-86
2023/10/24 00:52:18;;;;;;;9.88;6.22;;;;;;;;;;5031146;28;20056;-87
2023/10/24 00:54:44;;;;;;;9.40;7.03;;;;;;;;;;5027810;28;20151;-87
2023/10/24 00:57:12;;;;;;;10.20;7.13;;;;;;;;;;5030756;28;20466;-87
2023/10/24 00:59:39;;;;;;;10.35;6.40;;;;;;;;;;5031750;28;20021;-85
2023/10/24 01:02:06;;;;;;;9.85;6.40;;;;;;;;;;5030817;28;20151;-87
2023/10/24 01:04:32;;;;;;;8.52;6.75;;;;;;;;;;5031959;28;20496;-86
2023/10/24 01:06:59;;;;;;;10.48;6.80;;;;;;;;;;5030032;28;20107;-86
2023/10/24 01:09:24;;;;;;;7.55;6.10;;;;;;;;;;5030485;28;20370;-85
2023/10/24 01:11:50;;;;;;;8.75;6.22;;;;;;;;;;5025405;28;20059;-86
2023/10/24 01:14:15;;;;;;;8.52;6.00;;;;;;;;;;5023393;28;20025;-87
2023/10/24 01:16:43;;;;;;;10.00;5.78;;;;;;;;;;5026532;28;20044;-87
2023/10/24 01:19:09;;;;;;;8.77;6.07;;;;;;;;;;5028143;28;20021;-85
2023/10/24 01:21:34;;;;;;;8.75;5.50;;;;;;;;;;5030400;28;20027;-87
2023/10/24 01:24:00;;;;;;;7.53;5.50;;;;;;;;;;5031918;28;20029;-84
2023/10/24 01:26:27;;;;;;;11.05;6.80;;;;;;;;;;5023983;28;20026;-83
2023/10/24 01:28:52;;;;;;;8.10;5.70;;;;;;;;;;5045553;28;20025;-84
2023/10/24 01:31:18;;;;;;;7.65;4.60;;;;;;;;;;5030483;28;20496;-84
2023/10/24 01:33:43;;;;;;;9.45;5.25;;;;;;;;;;5029508;28;20029;-84
2023/10/24 01:36:08;;;;;;;7.28;4.75;;;;;;;;;;5031553;28;20021;-83
2023/10/24 01:38:34;;;;;;;7.72;4.72;;;;;;;;;;5039334;28;20033;-83
2023/10/24 01:40:59;;;;;;;8.40;5.05;;;;;;;;;;5025272;28;20025;-84
2023/10/24 01:43:24;;;;;;;7.70;4.70;;;;;;;;;;5030063;28;20068;-84
2023/10/24 01:45:50;;;;;;;7.47;4.78;;;;;;;;;;5027234;28;20029;-84
2023/10/24 01:48:15;;;;;;;6.38;4.35;;;;;;;;;;5024944;28;20021;-84
2023/10/24 01:50:41;;;;;;;6.25;4.35;;;;;;;;;;5025479;28;20045;-84
2023/10/24 01:53:06;;;;;;;6.90;3.83;;;;;;;;;;5027807;28;20053;-83
2023/10/24 01:55:31;;;;;;;6.63;4.03;;;;;;;;;;5028509;28;20033;-82
2023/10/24 01:57:57;;;;;;;6.13;4.45;;;;;;;;;;5027268;28;20048;-82
2023/10/24 02:00:22;;;;;;;6.18;4.07;;;;;;;;;;5027169;28;20024;-82
2023/10/24 02:02:47;;;;;;;5.32;3.78;;;;;;;;;;5036308;28;20136;-82
2023/10/24 02:05:14;;;;;;;5.18;3.70;;;;;;;;;;5025723;28;20034;-82
2023/10/24 02:07:39;;;;;;;6.07;4.30;;;;;;;;;;5026235;28;20363;-82
2023/10/24 02:10:05;;;;;;;6.47;3.80;;;;;;;;;;5026970;28;20032;-82
2023/10/24 02:12:31;;;;;;;5.22;3.75;;;;;;;;;;5027833;28;20036;-82
2023/10/24 02:14:56;;;;;;;6.88;4.10;;;;;;;;;;5028473;28;20563;-82
2023/10/24 02:17:21;;;;;;;7.18;3.67;;;;;;;;;;5029307;28;20021;-82
2023/10/24 02:19:47;;;;;;;7.43;3.63;;;;;;;;;;5044547;28;20053;-82
2023/10/24 02:22:13;;;;;;;5.18;3.50;;;;;;;;;;5028334;28;20029;-82
2023/10/24 02:24:39;;;;;;;5.15;3.50;;;;;;;;;;5025314;28;20472;-82
2023/10/24 02:27:04;;;;;;;6.13;3.90;;;;;;;;;;5034989;28;20044;-82
2023/10/24 02:29:33;;;;;;;5.40;2.90;;;;;;;;;;5025748;28;20036;-82
2023/10/24 02:32:00;;;;;;;4.78;3.40;;;;;;;;;;5024110;28;20132;-82
2023/10/24 02:34:26;;;;;;;5.30;3.58;;;;;;;;;;5026121;28;20038;-83
2023/10/24 02:36:51;;;;;;;5.15;3.40;;;;;;;;;;5028990;28;20033;-82
2023/10/24 02:39:16;;;;;;;6.55;3.35;;;;;;;;;;5027199;28;20408;-82
2023/10/24 02:41:42;;;;;;;5.03;3.60;;;;;;;;;;5029388;28;20021;-82
2023/10/24 02:44:07;;;;;;;7.18;3.70;;;;;;;;;;5030250;28;20034;-88
2023/10/24 02:46:32;;;;;;;5.75;3.35;;;;;;;;;;5032343;28;20029;-88
2023/10/24 02:48:58;;;;;;;5.95;3.53;;;;;;;;;;5031953;28;20481;-88
2023/10/24 02:51:23;;;;;;;4.65;3.25;;;;;;;;;;5027126;28;20115;-88
2023/10/24 02:53:49;;;;;;;4.97;3.55;;;;;;;;;;5031101;28;20033;-88
2023/10/24 02:56:14;;;;;;;5.60;3.42;;;;;;;;;;5034976;28;20374;-89
2023/10/24 02:58:39;;;;;;;4.32;3.40;;;;;;;;;;5030727;28;20083;-87
2023/10/24 03:01:05;;;;;;;6.05;3.47;;;;;;;;;;5042428;28;20060;-88
2023/10/24 03:03:31;;;;;;;6.38;3.50;;;;;;;;;;5030749;28;20061;-88
2023/10/24 03:05:57;;;;;;;6.07;3.75;;;;;;;;;;5022306;28;20041;-88
2023/10/24 03:08:22;;;;;;;5.65;3.30;;;;;;;;;;5029238;28;20079;-86
2023/10/24 03:10:47;;;;;;;4.18;2.80;;;;;;;;;;5020509;28;20034;-87
2023/10/24 03:13:13;;;;;;;7.82;3.45;;;;;;;;;;5026572;28;20033;-87
2023/10/24 03:15:39;;;;;;;4.65;3.20;;;;;;;;;;5027736;28;20029;-88
2023/10/24 03:18:05;;;;;;;4.28;3.03;;;;;;;;;;5028046;28;20033;-88
2023/10/24 03:20:30;;;;;;;4.75;3.17;;;;;;;;;;5027251;28;20030;-89
2023/10/24 03:22:56;;;;;;;5.13;3.50;;;;;;;;;;5027717;28;20108;-88
2023/10/24 03:25:23;;;;;;;4.25;3.10;;;;;;;;;;5027631;28;20052;-88
2023/10/24 03:27:54;;;;;;;4.90;3.20;;;;;;;;;;5022572;28;20025;-88
2023/10/24 03:30:22;;;;;;;4.25;2.97;;;;;;;;;;5022515;28;20478;-88
2023/10/24 03:32:47;;;;;;;4.85;3.53;;;;;;;;;;5028053;28;20017;-86
2023/10/24 03:35:14;;;;;;;4.53;3.58;;;;;;;;;;5026381;28;20052;-88
2023/10/24 03:37:39;;;;;;;6.63;3.45;;;;;;;;;;5022161;28;20025;-89
2023/10/24 03:40:05;;;;;;;4.57;3.10;;;;;;;;;;5025339;28;20038;-87
2023/10/24 03:42:31;;;;;;;5.28;3.30;;;;;;;;;;5031359;28;20029;-90
2023/10/24 03:44:56;;;;;;;4.10;3.05;;;;;;;;;;5029142;28;20087;-89
2023/10/24 03:47:22;;;;;;;4.88;3.30;;;;;;;;;;5044074;28;20037;-89
2023/10/24 03:49:47;;;;;;;5.18;3.38;;;;;;;;;;5024592;28;20029;-87
2023/10/24 03:52:13;;;;;;;4.95;3.60;;;;;;;;;;5036517;28;20597;-85
2023/10/24 03:54:38;;;;;;;4.30;2.83;;;;;;;;;;5026192;28;21536;-88
2023/10/24 03:57:04;;;;;;;4.88;3.35;;;;;;;;;;5026531;28;20033;-88
2023/10/24 03:59:29;;;;;;;5.63;3.60;;;;;;;;;;5035155;28;20032;-89
2023/10/24 04:01:54;;;;;;;5.03;3.55;;;;;;;;;;5032735;28;20053;-91
2023/10/24 04:04:20;;;;;;;5.40;3.65;;;;;;;;;;5026258;28;20505;-83
2023/10/24 04:06:45;;;;;;;5.32;3.78;;;;;;;;;;5029747;28;20039;-84
2023/10/24 04:09:11;;;;;;;6.07;4.00;;;;;;;;;;5030274;28;20477;-83
2023/10/24 04:11:36;;;;;;;5.28;3.75;;;;;;;;;;5029209;28;20366;-83
2023/10/24 04:14:02;;;;;;;5.10;3.72;;;;;;;;;;5028699;28;20490;-83
2023/10/24 04:16:28;;;;;;;5.15;3.80;;;;;;;;;;5026552;28;20104;-83
2023/10/24 04:18:53;;;;;;;5.93;4.15;;;;;;;;;;5031288;28;20490;-83
2023/10/24 04:21:18;;;;;;;4.97;3.42;;;;;;;;;;5030199;28;20025;-83
2023/10/24 04:23:44;;;;;;;5.47;3.42;;;;;;;;;;5025899;28;20473;-83
2023/10/24 04:26:10;;;;;;;5.28;3.83;;;;;;;;;;5026493;28;20064;-83
2023/10/24 04:28:36;;;;;;;5.68;3.45;;;;;;;;;;5027871;28;20473;-83
2023/10/24 04:31:01;;;;;;;5.78;3.65;;;;;;;;;;5029703;28;20544;-85
2023/10/24 04:33:27;;;;;;;6.53;3.78;;;;;;;;;;5028381;28;20386;-84
2023/10/24 04:35:52;;;;;;;6.18;3.80;;;;;;;;;;5030065;28;20025;-84
2023/10/24 04:38:18;;;;;;;5.88;3.75;;;;;;;;;;5027071;28;20033;-85
2023/10/24 04:40:44;;;;;;;5.28;3.55;;;;;;;;;;5028108;28;20036;-83
2023/10/24 04:43:10;;;;;;;6.20;4.10;;;;;;;;;;5028588;28;20130;-84
2023/10/24 04:45:36;;;;;;;5.78;4.05;;;;;;;;;;5021873;28;20029;-83
2023/10/24 04:48:05;;;;;;;5.70;3.97;;;;;;;;;;5022645;28;20075;-84
2023/10/24 04:50:34;;;;;;;6.30;4.05;;;;;;;;;;5036904;28;20040;-83
2023/10/24 04:53:00;;;;;;;5.57;4.22;;;;;;;;;;5023180;28;20035;-84
2023/10/24 04:55:25;;;;;;;6.03;3.90;;;;;;;;;;5021634;28;20033;-84
2023/10/24 04:57:50;;;;;;;5.70;4.28;;;;;;;;;;5021231;28;20029;-84
2023/10/24 05:00:16;;;;;;;5.82;4.30;;;;;;;;;;5020217;28;20041;-83
2023/10/24 05:02:43;;;;;;;6.00;3.80;;;;;;;;;;5027060;28;20480;-83
2023/10/24 05:05:12;;;;;;;6.28;4.70;;;;;;;;;;5021428;28;20108;-84
2023/10/24 05:07:38;;;;;;;7.32;4.60;;;;;;;;;;5020143;28;20028;-83
2023/10/24 05:10:04;;;;;;;5.70;4.10;;;;;;;;;;5041664;28;20033;-83
2023/10/24 05:12:29;;;;;;;5.93;4.47;;;;;;;;;;5028617;28;20025;-83
2023/10/24 05:14:55;;;;;;;7.05;4.03;;;;;;;;;;5034187;28;20033;-83
2023/10/24 05:17:20;;;;;;;6.05;4.00;;;;;;;;;;5036269;28;20494;-83
2023/10/24 05:19:49;;;;;;;6.07;4.32;;;;;;;;;;5019792;28;20057;-83
2023/10/24 05:22:14;;;;;;;8.00;4.72;;;;;;;;;;5023915;28;20393;-86
2023/10/24 05:24:41;;;;;;;6.65;4.68;;;;;;;;;;5025061;28;20032;-85
2023/10/24 05:27:07;;;;;;;5.75;4.10;;;;;;;;;;5022760;28;20040;-85
2023/10/24 05:29:33;;;;;;;6.32;4.25;;;;;;;;;;5022599;28;21390;-85
2023/10/24 05:31:59;;;;;;;5.97;4.55;;;;;;;;;;5033427;28;20037;-85
2023/10/24 05:34:28;;;;;;;5.88;4.43;;;;;;;;;;5042232;28;20477;-85
2023/10/24 05:36:54;;;;;;;7.35;5.03;;;;;;;;;;5028785;28;20100;-85
2023/10/24 05:39:20;;;;;;;8.10;4.82;;;;;;;;;;5027886;28;20029;-86
2023/10/24 05:41:49;;;;;;;6.60;4.32;;;;;;;;;;5030243;28;20075;-84
2023/10/24 05:44:14;;;;;;;6.05;4.63;;;;;;;;;;5026549;28;20084;-86
2023/10/24 05:46:40;;;;;;;5.55;4.18;;;;;;;;;;5024346;28;20039;-84
2023/10/24 05:49:06;;;;;;;7.03;4.90;;;;;;;;;;5016082;28;21204;-86
2023/10/24 05:51:32;;;;;;;6.05;4.10;;;;;;;;;;5031594;28;20385;-86
2023/10/24 05:53:58;;;;;;;6.20;4.50;;;;;;;;;;5030384;28;20025;-87
2023/10/24 05:56:23;;;;;;;5.60;4.10;;;;;;;;;;5027208;28;20091;-87
2023/10/24 05:58:49;;;;;;;6.20;4.60;;;;;;;;;;5039357;28;20039;-88
2023/10/24 06:01:14;;;;;;;7.40;4.50;;;;;;;;;;5031159;28;20022;-87
2023/10/24 06:03:40;;;;;;;5.97;4.35;;;;;;;;;;5027213;28;20023;-87
2023/10/24 06:06:05;;;;;;;6.32;5.00;;;;;;;;;;5027477;28;20025;-87
2023/10/24 06:08:31;;;;;;;6.55;4.80;;;;;;;;;;5029294;28;20029;-88
2023/10/24 06:10:57;;;;;;;5.18;4.03;;;;;;;;;;5031762;28;20053;-87
2023/10/24 06:13:23;;;;;;;8.55;4.28;;;;;;;;;;5029373;28;20021;-86
2023/10/24 06:15:48;;;;;;;5.93;4.53;;;;;;;;;;5031871;28;20041;-86
2023/10/24 06:18:17;;;;;;;5.32;4.07;;;;;;;;;;5023128;28;20036;-86
2023/10/24 06:20:42;;;;;;;7.15;4.88;;;;;;;;;;5029695;28;20478;-86
2023/10/24 06:23:08;;;;;;;6.15;4.53;;;;;;;;;;5032761;28;20166;-89
2023/10/24 06:25:41;;;;;;;4.80;3.78;;;;;;;;;;5026843;28;20030;-88
2023/10/24 06:28:07;;;;;;;5.82;4.40;;;;;;;;;;5033244;28;20028;-89
2023/10/24 06:30:34;;;;;;;5.70;4.10;;;;;;;;;;5027621;28;20165;-89
2023/10/24 06:33:00;;;;;;;4.93;3.80;;;;;;;;;;5041244;28;20032;-81
2023/10/24 06:35:26;;;;;;;4.93;3.75;;;;;;;;;;5031817;28;20037;-82
2023/10/24 06:37:52;;;;;;;4.78;3.78;;;;;;;;;;5027960;28;20025;-81
2023/10/24 06:40:17;;;;;;;5.47;4.00;;;;;;;;;;5021598;28;20051;-82
2023/10/24 06:42:44;;;;;;;5.57;3.85;;;;;;;;;;5020093;28;20065;-82
2023/10/24 06:45:10;;;;;;;5.70;4.07;;;;;;;;;;5028853;28;20025;-83
2023/10/24 06:47:37;;;;;;;4.88;3.58;;;;;;;;;;5027095;28;20453;-81
2023/10/24 06:50:02;;;;;;;5.97;3.85;;;;;;;;;;5029784;28;20100;-81
2023/10/24 06:52:28;;;;;;;5.00;3.72;;;;;;;;;;5032729;28;20116;-81
2023/10/24 06:54:53;;;;;;;5.07;3.58;;;;;;;;;;5040397;28;20124;-81
2023/10/24 06:57:19;;;;;;;6.32;3.95;;;;;;;;;;5032409;28;20034;-81
2023/10/24 06:59:44;;;;;;;6.07;4.30;;;;;;;;;;5037372;28;20036;-81
2023/10/24 07:02:10;;;;;;;5.95;3.85;;;;;;;;;;5031067;28;20068;-81
2023/10/24 07:04:35;;;;;;;6.97;3.70;;;;;;;;;;5023820;28;20021;-81
2023/10/24 07:07:01;;;;;;;5.50;3.63;;;;;;;;;;5033106;28;20125;-81
2023/10/24 07:09:26;;;;;;;5.63;3.95;;;;;;;;;;5032349;28;20013;-81
2023/10/24 07:11:51;;;;;;;5.80;3.70;;;;;;;;;;5031705;28;20029;-81
2023/10/24 07:14:17;;;;;;;5.63;3.90;;;;;;;;;;5034938;28;20034;-83
2023/10/24 07:16:42;;;;;;;7.32;4.22;;;;;;;;;;5031242;28;20367;-81
2023/10/24 07:19:08;;;;;;;6.03;4.13;;;;;;;;;;5046848;28;20041;-81
2023/10/24 07:21:33;;;;;;;7.28;3.88;;;;;;;;;;5034308;28;20076;-82
2023/10/24 07:23:59;;;;;;;5.45;4.00;;;;;;;;;;5032183;28;20029;-81
2023/10/24 07:26:24;;;;;;;6.25;4.18;;;;;;;;;;5031917;28;20029;-81
2023/10/24 07:28:49;;;;;;;6.60;4.30;;;;;;;;;;5029623;28;20473;-82
2023/10/24 07:31:15;;;;;;;5.75;4.00;;;;;;;;;;5036312;28;20028;-82
2023/10/24 07:33:41;;;;;;;6.75;4.25;;;;;;;;;;5050804;28;20116;-81
2023/10/24 07:36:07;;;;;;;6.18;4.18;;;;;;;;;;5037637;28;20033;-81
2023/10/24 07:38:33;;;;;;;9.85;4.60;;;;;;;;;;5045191;28;20115;-81
2023/10/24 07:40:59;;;;;;;6.20;4.60;;;;;;;;;;5037286;28;20025;-81
2023/10/24 07:43:24;;;;;;;6.22;4.32;;;;;;;;;;5036346;28;20033;-88
2023/10/24 07:45:50;;;;;;;7.45;4.93;;;;;;;;;;5036061;28;20025;-86
2023/10/24 07:48:16;;;;;;;8.07;4.70;;;;;;;;;;5044531;28;20033;-87
2023/10/24 07:50:52;;;;;;;6.78;4.70;;;;;;;;;;5035039;28;20465;-87
2023/10/24 07:53:18;;;;;;;8.25;4.97;;;;;;;;;;5050221;28;20026;-81
2023/10/24 07:55:44;;;;;;;8.48;5.22;;;;;;;;;;5033917;28;20026;-82
2023/10/24 07:58:10;;;;;;;7.55;5.07;;;;;;;;;;5034794;28;20055;-81
2023/10/24 08:00:35;;;;;;;6.97;4.90;;;;;;;;;;5035140;28;20029;-81
2023/10/24 08:03:00;;;;;;;7.28;4.65;;;;;;;;;;5036005;28;20092;-82
2023/10/24 08:05:26;;;;;;;12.65;5.78;;;;;;;;;;5040639;28;20033;-82
2023/10/24 08:07:51;;;;;;;8.50;5.70;;;;;;;;;;5049028;28;20021;-82
2023/10/24 08:10:17;;;;;;;8.20;5.70;;;;;;;;;;5043633;28;20701;-81
2023/10/24 08:12:42;;;;;;;10.35;6.25;;;;;;;;;;5041422;28;20029;-82
2023/10/24 08:15:08;;;;;;;8.52;5.60;;;;;;;;;;5035431;28;20025;-82
2023/10/24 08:17:34;;;;;;;8.15;6.07;;;;;;;;;;5033650;28;20029;-81
2023/10/24 08:19:59;;;;;;;7.50;5.80;;;;;;;;;;5031494;28;20037;-82
2023/10/24 08:22:25;;;;;;;7.82;5.97;;;;;;;;;;5039525;28;20033;-81
2023/10/24 08:24:50;;;;;;;8.38;5.75;;;;;;;;;;5033944;28;20503;-81
2023/10/24 08:27:15;;;;;;;9.73;6.30;;;;;;;;;;5035085;28;20048;-82
2023/10/24 08:29:41;;;;;;;9.63;5.80;;;;;;;;;;5035459;28;20017;-82
2023/10/24 08:32:07;;;;;;;7.85;5.63;;;;;;;;;;5035773;28;20107;-82
2023/10/24 08:34:36;;;;;;;10.32;6.38;;;;;;;;;;5035050;28;20037;-81
2023/10/24 08:37:02;;;;;;;9.05;5.68;;;;;;;;;;5033052;28;20466;-82
2023/10/24 08:39:27;;;;;;;8.30;6.35;;;;;;;;;;5034958;28;20029;-81
2023/10/24 08:41:55;;;;;;;9.98;6.63;;;;;;;;;;5034129;28;20125;-81
2023/10/24 08:44:21;;;;;;;8.90;6.00;;;;;;;;;;5046935;28;20104;-82
2023/10/24 08:46:46;;;;;;;9.93;6.22;;;;;;;;;;5032376;28;20144;-81
2023/10/24 08:49:14;;;;;;;9.52;5.88;;;;;;;;;;5034395;28;20120;-81
2023/10/24 08:51:39;;;;;;;8.73;5.85;;;;;;;;;;5043917;28;20036;-82
2023/10/24 08:54:05;;;;;;;8.57;5.80;;;;;;;;;;5033088;28;20109;-82
2023/10/24 08:56:33;;;;;;;8.63;5.95;;;;;;;;;;5033718;28;20578;-81
2023/10/24 08:58:59;;;;;;;10.40;6.47;;;;;;;;;;5032813;28;20028;-81
2023/10/24 09:01:26;;;;;;;6.97;5.30;;;;;;;;;;5033029;28;20470;-81
2023/10/24 09:03:51;;;;;;;7.97;5.70;;;;;;;;;;5033200;28;20151;-81
2023/10/24 09:06:18;;;;;;;9.55;5.32;;;;;;;;;;5030307;28;20100;-81
2023/10/24 09:08:43;;;;;;;7.75;5.35;;;;;;;;;;5034156;28;20493;-82
2023/10/24 09:11:08;;;;;;;8.32;5.60;;;;;;;;;;5031569;28;20109;-81
2023/10/24 09:13:34;;;;;;;8.45;5.65;;;;;;;;;;5025244;28;20028;-82
2023/10/24 09:16:10;;;;;;;8.27;5.47;;;;;;;;;;5035814;28;20037;-81
2023/10/24 09:18:37;;;;;;;9.18;5.93;;;;;;;;;;5034124;28;20021;-82
2023/10/24 09:21:05;;;;;;;8.35;5.57;;;;;;;;;;5032133;28;20030;-81
2023/10/24 09:23:32;;;;;;;9.85;6.00;;;;;;;;;;5032208;28;20035;-82
2023/10/24 09:26:02;;;;;;;7.95;5.55;;;;;;;;;;5032478;28;20044;-82
2023/10/24 09:28:29;;;;;;;8.30;5.20;;;;;;;;;;5033642;28;20532;-82
2023/10/24 09:30:56;;;;;;;7.72;5.43;;;;;;;;;;5033963;28;20024;-82
2023/10/24 09:33:24;;;;;;;8.38;5.40;;;;;;;;;;5032664;28;20018;-82
2023/10/24 09:35:49;;;;;;;7.35;5.10;;;;;;;;;;5037851;28;20461;-82
2023/10/24 09:38:17;;;;;;;6.90;5.07;;;;;;;;;;5033744;28;20064;-82
2023/10/24 09:40:43;;;;;;;6.53;4.90;;;;;;;;;;5042601;28;20485;-81
2023/10/24 09:43:21;;;;;;;7.78;4.63;;;;;;;;;;5031753;28;20109;-82
2023/10/24 09:45:49;;;;;;;10.15;5.22;;;;;;;;;;5025577;28;20525;-82
2023/10/24 09:48:16;;;;;;;7.03;4.85;;;;;;;;;;5033587;28;20025;-82
2023/10/24 09:50:42;;;;;;;8.25;4.25;;;;;;;;;;5038267;28;20049;-81
2023/10/24 09:53:09;;;;;;;6.57;4.43;;;;;;;;;;5041570;28;20099;-82
2023/10/24 09:55:35;;;;;;;6.07;4.20;;;;;;;;;;5046902;28;20481;-82
2023/10/24 09:58:03;;;;;;;6.13;4.88;;;;;;;;;;5027697;28;20127;-81
2023/10/24 10:00:30;;;;;;;8.00;5.03;;;;;;;;;;5046012;28;20021;-82
2023/10/24 10:02:58;;;;;;;5.78;4.30;;;;;;;;;;5033477;28;20025;-82
2023/10/24 10:05:28;;;;;;;7.47;4.60;;;;;;;;;;5032303;28;20029;-83
2023/10/24 10:07:54;;;;;;;6.35;3.67;;;;;;;;;;5043410;28;20286;-81
2023/10/24 10:10:22;;;;;;;6.65;4.45;;;;;;;;;;5031189;28;20030;-81
2023/10/24 10:12:48;;;;;;;5.30;4.00;;;;;;;;;;5032946;28;20116;-81
2023/10/24 10:15:39;;;;;;;8.02;4.75;;;;;;;;;;5029365;28;20036;-81
2023/10/24 10:18:23;;;;;;;5.50;4.60;;;;;;;;;;5029796;28;20036;-81
2023/10/24 10:20:59;;;;;;;6.82;4.53;;;;;;;;;;5035949;28;20025;-82
2023/10/24 10:23:33;;;;;;;5.93;4.13;;;;;;;;;;5031496;28;20029;-81
2023/10/24 10:26:17;;;;;;;7.63;4.50;;;;;;;;;;5048337;28;20048;-81
2023/10/24 10:29:20;;;;;;;6.32;4.60;;;;;;;;;;5044294;28;20460;-88
2023/10/24 10:32:05;;;;;;;6.70;4.43;;;;;;;;;;5030793;28;20025;-89
2023/10/24 10:34:35;;;;;;;7.32;5.00;;;;;;;;;;5029879;28;20029;-89
2023/10/24 10:37:01;;;;;;;6.88;4.93;;;;;;;;;;5032941;28;20385;-89
2023/10/24 10:39:26;;;;;;;8.20;4.80;;;;;;;;;;5026962;28;20030;-89
2023/10/24 10:41:52;;;;;;;7.32;4.68;;;;;;;;;;5035362;28;20099;-89
2023/10/24 10:44:38;;;;;;;8.93;4.53;;;;;;;;;;5033365;28;20485;-88
2023/10/24 10:47:06;;;;;;;6.43;4.75;;;;;;;;;;5035635;28;20037;-89
2023/10/24 10:49:44;;;;;;;6.45;4.70;;;;;;;;;;5032119;28;20030;-89
2023/10/24 10:52:41;;;;;;;8.20;4.82;;;;;;;;;;5038576;28;20025;-89
2023/10/24 10:55:25;;;;;;;6.45;4.50;;;;;;;;;;5033030;28;20036;-90
2023/10/24 10:58:23;;;;;;;6.88;5.10;;;;;;;;;;5026561;28;20025;-89
2023/10/24 11:01:00;;;;;;;7.78;5.10;;;;;;;;;;5035832;28;20087;-89
2023/10/24 11:03:38;;;;;;;8.43;5.07;;;;;;;;;;5036443;28;20029;-88
2023/10/24 11:06:19;;;;;;;8.10;4.75;;;;;;;;;;5024090;28;20512;-89
2023/10/24 11:09:06;;;;;;;9.05;5.30;;;;;;;;;;5030540;28;20051;-89
2023/10/24 11:11:31;;;;;;;6.25;4.57;;;;;;;;;;5028677;28;20029;-89
2023/10/24 11:14:14;;;;;;;7.90;4.82;;;;;;;;;;5032716;28;20026;-89
2023/10/24 11:16:42;;;;;;;6.38;4.57;;;;;;;;;;5029978;28;20140;-89
2023/10/24 11:19:16;;;;;;;8.27;4.90;;;;;;;;;;5042747;28;20072;-88
2023/10/24 11:21:44;;;;;;;9.15;4.80;;;;;;;;;;5025312;28;20029;-89
2023/10/24 11:24:10;;;;;;;6.40;4.10;;;;;;;;;;5033001;28;20031;-90
2023/10/24 11:26:36;;;;;;;6.13;4.20;;;;;;;;;;5028951;28;20025;-90
2023/10/24 11:29:01;;;;;;;5.68;4.03;;;;;;;;;;5034560;28;20452;-89
2023/10/24 11:31:27;;;;;;;6.65;4.35;;;;;;;;;;5035191;28;20032;-92
2023/10/24 11:33:53;;;;;;;5.43;3.83;;;;;;;;;;5027192;28;20094;-90
2023/10/24 11:36:18;;;;;;;7.15;3.53;;;;;;;;;;5032870;28;20061;-91
2023/10/24 11:38:45;;;;;;;5.63;3.42;;;;;;;;;;5033295;28;20479;-91
2023/10/24 11:41:10;;;;;;;5.45;4.00;;;;;;;;;;5034043;28;20022;-91
2023/10/24 11:43:35;;;;;;;5.32;3.60;;;;;;;;;;5030503;28;20835;-82
2023/10/24 11:46:01;;;;;;;5.32;3.40;;;;;;;;;;5034864;28;20477;-82
2023/10/24 11:48:26;;;;;;;5.10;3.10;;;;;;;;;;5030633;28;20013;-83
2023/10/24 11:50:52;;;;;;;3.95;2.90;;;;;;;;;;5034087;28;20036;-81
2023/10/24 11:53:23;;;;;;;5.25;2.65;;;;;;;;;;5029614;28;20048;-83
2023/10/24 11:55:49;;;;;;;4.65;3.22;;;;;;;;;;5031915;28;20504;-82
2023/10/24 11:58:15;;;;;;;5.00;3.20;;;;;;;;;;5031956;28;20083;-83
2023/10/24 12:00:43;;;;;;;4.28;2.75;;;;;;;;;;5033055;28;20481;-83
2023/10/24 12:03:09;;;;;;;3.92;2.75;;;;;;;;;;5027525;28;20040;-82
2023/10/24 12:05:36;;;;;;;5.35;2.80;;;;;;;;;;5028774;28;20072;-82
2023/10/24 12:08:03;;;;;;;3.83;2.60;;;;;;;;;;5031162;28;20026;-82
2023/10/24 12:10:30;;;;;;;4.10;2.65;;;;;;;;;;5029795;28;20028;-82
2023/10/24 12:12:57;;;;;;;7.20;3.33;;;;;;;;;;5030448;28;20026;-89
2023/10/24 12:15:24;;;;;;;4.28;2.70;;;;;;;;;;5034771;28;20021;-88
2023/10/24 12:17:50;;;;;;;4.22;2.42;;;;;;;;;;5036956;28;20488;-88
2023/10/24 12:20:17;;;;;;;4.05;2.65;;;;;;;;;;5051323;28;20025;-88
2023/10/24 12:22:46;;;;;;;6.07;3.00;;;;;;;;;;5042713;28;20600;-89
2023/10/24 12:25:14;;;;;;;3.83;2.60;;;;;;;;;;5047765;28;20033;-90
2023/10/24 12:27:39;;;;;;;3.40;2.58;;;;;;;;;;5031895;28;20388;-89
2023/10/24 12:30:05;;;;;;;4.50;2.78;;;;;;;;;;5035729;28;20033;-88
2023/10/24 12:32:31;;;;;;;4.28;2.60;;;;;;;;;;5039451;28;20469;-87
2023/10/24 12:34:56;;;;;;;3.75;2.28;;;;;;;;;;5030117;28;20029;-87
2023/10/24 12:37:22;;;;;;;4.28;2.80;;;;;;;;;;5030842;28;20032;-87
2023/10/24 12:39:49;;;;;;;4.65;2.70;;;;;;;;;;5036554;28;20087;-87
2023/10/24 12:42:15;;;;;;;4.00;2.70;;;;;;;;;;5030152;28;20521;-87
2023/10/24 12:44:40;;;;;;;3.95;2.78;;;;;;;;;;5029415;28;20025;-87
2023/10/24 12:47:08;;;;;;;4.68;2.63;;;;;;;;;;5034613;28;20104;-85
2023/10/24 12:49:34;;;;;;;4.75;2.78;;;;;;;;;;5037167;28;20592;-86
2023/10/24 12:52:00;;;;;;;3.72;2.80;;;;;;;;;;5032398;28;20034;-88
2023/10/24 12:54:26;;;;;;;4.57;2.58;;;;;;;;;;5025283;28;20035;-89
2023/10/24 12:56:52;;;;;;;5.30;3.03;;;;;;;;;;5031911;28;20064;-87
2023/10/24 12:59:18;;;;;;;3.97;2.83;;;;;;;;;;5026076;28;20063;-87
2023/10/24 13:01:44;;;;;;;5.40;3.17;;;;;;;;;;5035776;28;20040;-90
2023/10/24 13:04:11;;;;;;;5.38;3.38;;;;;;;;;;5029006;28;20112;-89
2023/10/24 13:06:36;;;;;;;5.05;3.63;;;;;;;;;;5026306;28;20079;-88
2023/10/24 13:09:03;;;;;;;6.28;4.68;;;;;;;;;;5026929;28;20029;-90
2023/10/24 13:11:34;;;;;;;5.50;3.50;;;;;;;;;;5021786;28;20041;-89
2023/10/24 13:14:00;;;;;;;5.57;3.50;;;;;;;;;;5022367;28;20208;-88
2023/10/24 13:16:26;;;;;;;6.10;3.25;;;;;;;;;;5020406;28;20565;-90
2023/10/24 13:18:51;;;;;;;6.07;3.45;;;;;;;;;;5025739;28;20029;-88
2023/10/24 13:21:18;;;;;;;6.70;3.33;;;;;;;;;;5022251;28;20029;-90
2023/10/24 13:23:44;;;;;;;4.35;3.00;;;;;;;;;;5029182;28;20124;-88
2023/10/24 13:26:09;;;;;;;5.43;3.10;;;;;;;;;;5023411;28;20477;-90
2023/10/24 13:28:35;;;;;;;5.45;2.58;;;;;;;;;;5026376;28;20041;-90
2023/10/24 13:31:00;;;;;;;4.40;2.83;;;;;;;;;;5024177;28;20401;-89
2023/10/24 13:33:26;;;;;;;3.58;2.30;;;;;;;;;;5025525;28;20041;-88
2023/10/24 13:35:52;;;;;;;4.35;2.30;;;;;;;;;;5029423;28;20039;-89
2023/10/24 13:38:19;;;;;;;4.20;2.30;;;;;;;;;;5025880;28;20053;-89
2023/10/24 13:40:44;;;;;;;4.78;2.28;;;;;;;;;;5023779;28;20486;-89
2023/10/24 13:43:10;;;;;;;3.25;2.05;;;;;;;;;;5021676;28;20033;-89
2023/10/24 13:45:35;;;;;;;4.00;1.95;;;;;;;;;;5026112;28;20056;-89
2023/10/24 13:48:02;;;;;;;4.00;2.30;;;;;;;;;;5027032;28;20036;-87
2023/10/24 13:50:28;;;;;;;5.25;2.15;;;;;;;;;;5021806;28;20092;-89
2023/10/24 13:52:53;;;;;;;3.13;1.92;;;;;;;;;;5026509;28;20725;-90
2023/10/24 13:55:19;;;;;;;3.45;2.15;;;;;;;;;;5029344;28;20083;-90
2023/10/24 13:57:46;;;;;;;4.38;2.00;;;;;;;;;;5034086;28;20040;-88
2023/10/24 14:00:12;;;;;;;3.15;1.90;;;;;;;;;;5024226;28;20037;-88
2023/10/24 14:02:44;;;;;;;3.78;1.85;;;;;;;;;;5022630;28;20539;-90
2023/10/24 14:05:10;;;;;;;4.57;1.90;;;;;;;;;;5024208;28;20057;-90
2023/10/24 14:07:35;;;;;;;4.50;1.60;;;;;;;;;;5029116;28;20057;-86
2023/10/24 14:10:01;;;;;;;3.65;1.60;;;;;;;;;;5027367;28;20064;-88
2023/10/24 14:12:27;;;;;;;3.83;1.60;;;;;;;;;;5036898;28;20048;-90
2023/10/24 14:14:55;;;;;;;5.05;1.90;;;;;;;;;;5029430;28;20079;-91
2023/10/24 14:17:21;;;;;;;3.15;1.65;;;;;;;;;;5028741;28;20420;-91
2023/10/24 14:19:49;;;;;;;3.08;1.63;;;;;;;;;;5026969;28;20112;-90
2023/10/24 14:22:15;;;;;;;3.30;1.90;;;;;;;;;;5024872;28;20025;-91
2023/10/24 14:24:44;;;;;;;2.97;1.88;;;;;;;;;;5027469;28;20033;-90
2023/10/24 14:27:09;;;;;;;3.70;1.70;;;;;;;;;;5025115;28;20029;-90
2023/10/24 14:29:35;;;;;;;3.10;1.92;;;;;;;;;;5022992;28;20478;-91
2023/10/24 14:32:01;;;;;;;4.25;2.05;;;;;;;;;;5027936;28;20029;-92
2023/10/24 14:34:27;;;;;;;4.40;2.00;;;;;;;;;;5022987;28;20025;-89
2023/10/24 14:36:53;;;;;;;4.55;2.08;;;;;;;;;;5025632;28;20033;-88
2023/10/24 14:39:19;;;;;;;4.72;1.90;;;;;;;;;;5021324;28;20374;-88
2023/10/24 14:41:44;;;;;;;4.38;2.25;;;;;;;;;;5018041;28;20029;-88